sensor_id;sensor_type;location;lat;lon;timestamp;P1;durP1;ratioP1;P2;durP2;ratioP2
28760;SDS011;15917;50.014;8.352;2023-05-14T00:00:18;5.30;;;3.33;;
28760;SDS011;15917;50.014;8.352;2023-05-14T00:02:43;7.45;;;3.72;;
28760;SDS011;15917;50.014;8.352;2023-05-14T00:05:09;13.73;;;3.85;;
28760;SDS011;15917;50.014;8.352;2023-05-14T00:07:35;3.85;;;3.15;;
28760;SDS011;15917;50.014;8.352;2023-05-14T00:10:00;4.60;;;3.35;;
28760;SDS011;15917;50.014;8.352;2023-05-14T00:12:26;4.75;;;3.47;;
28760;SDS011;15917;50.014;8.352;2023-05-14T00:14:52;6.72;;;3.25;;
28760;SDS011;15917;50.014;8.352;2023-05-14T00:17:18;6.65;;;3.50;;
28760;SDS011;15917;50.014;8.352;2023-05-14T00:19:43;8.05;;;3.33;;
28760;SDS011;15917;50.014;8.352;2023-05-14T00:22:09;8.80;;;3.05;;
28760;SDS011;15917;50.014;8.352;2023-05-14T00:24:35;8.90;;;4.13;;
28760;SDS011;15917;50.014;8.352;2023-05-14T00:27:01;4.68;;;3.30;;
28760;SDS011;15917;50.014;8.352;2023-05-14T00:29:27;8.55;;;3.38;;
28760;SDS011;15917;50.014;8.352;2023-05-14T00:31:53;5.18;;;3.17;;
28760;SDS011;15917;50.014;8.352;2023-05-14T00:34:19;6.65;;;3.78;;
28760;SDS011;15917;50.014;8.352;2023-05-14T00:36:45;10.05;;;3.58;;
28760;SDS011;15917;50.014;8.352;2023-05-14T00:39:11;4.85;;;3.33;;
28760;SDS011;15917;50.014;8.352;2023-05-14T00:41:38;5.77;;;3.50;;
28760;SDS011;15917;50.014;8.352;2023-05-14T00:44:04;4.95;;;3.13;;
28760;SDS011;15917;50.014;8.352;2023-05-14T00:46:30;6.47;;;3.10;;
28760;SDS011;15917;50.014;8.352;2023-05-14T00:48:56;5.93;;;3.58;;
28760;SDS011;15917;50.014;8.352;2023-05-14T00:51:22;6.60;;;3.45;;
28760;SDS011;15917;50.014;8.352;2023-05-14T00:53:48;6.80;;;3.78;;
28760;SDS011;15917;50.014;8.352;2023-05-14T00:56:14;5.85;;;3.60;;
28760;SDS011;15917;50.014;8.352;2023-05-14T00:58:41;6.50;;;3.42;;
28760;SDS011;15917;50.014;8.352;2023-05-14T01:01:06;5.00;;;3.38;;
28760;SDS011;15917;50.014;8.352;2023-05-14T01:03:32;5.97;;;4.18;;
28760;SDS011;15917;50.014;8.352;2023-05-14T01:08:49;7.75;;;3.80;;
28760;SDS011;15917;50.014;8.352;2023-05-14T01:11:25;8.27;;;3.85;;
28760;SDS011;15917;50.014;8.352;2023-05-14T01:14:11;9.15;;;3.70;;
28760;SDS011;15917;50.014;8.352;2023-05-14T01:16:41;6.97;;;3.90;;
28760;SDS011;15917;50.014;8.352;2023-05-14T01:19:15;5.32;;;3.63;;
28760;SDS011;15917;50.014;8.352;2023-05-14T01:21:50;12.75;;;3.55;;
28760;SDS011;15917;50.014;8.352;2023-05-14T01:24:15;5.95;;;3.83;;
28760;SDS011;15917;50.014;8.352;2023-05-14T01:26:41;14.32;;;3.50;;
28760;SDS011;15917;50.014;8.352;2023-05-14T01:29:15;9.15;;;3.97;;
28760;SDS011;15917;50.014;8.352;2023-05-14T01:31:46;10.00;;;3.50;;
28760;SDS011;15917;50.014;8.352;2023-05-14T01:34:14;7.50;;;4.10;;
28760;SDS011;15917;50.014;8.352;2023-05-14T01:36:43;4.93;;;3.58;;
28760;SDS011;15917;50.014;8.352;2023-05-14T01:39:11;5.57;;;3.47;;
28760;SDS011;15917;50.014;8.352;2023-05-14T01:41:39;6.43;;;3.13;;
28760;SDS011;15917;50.014;8.352;2023-05-14T01:44:07;5.37;;;3.67;;
28760;SDS011;15917;50.014;8.352;2023-05-14T01:46:33;8.10;;;3.67;;
28760;SDS011;15917;50.014;8.352;2023-05-14T01:48:59;7.50;;;3.55;;
28760;SDS011;15917;50.014;8.352;2023-05-14T01:51:25;7.47;;;3.67;;
28760;SDS011;15917;50.014;8.352;2023-05-14T01:53:51;5.90;;;3.90;;
28760;SDS011;15917;50.014;8.352;2023-05-14T01:56:18;8.70;;;3.67;;
28760;SDS011;15917;50.014;8.352;2023-05-14T01:58:46;8.45;;;3.80;;
28760;SDS011;15917;50.014;8.352;2023-05-14T02:01:11;17.30;;;4.43;;
28760;SDS011;15917;50.014;8.352;2023-05-14T02:03:37;6.00;;;4.03;;
28760;SDS011;15917;50.014;8.352;2023-05-14T02:06:02;9.02;;;4.22;;
28760;SDS011;15917;50.014;8.352;2023-05-14T02:08:28;8.27;;;3.67;;
28760;SDS011;15917;50.014;8.352;2023-05-14T02:10:54;5.25;;;3.70;;
28760;SDS011;15917;50.014;8.352;2023-05-14T02:13:23;10.02;;;3.63;;
28760;SDS011;15917;50.014;8.352;2023-05-14T02:15:49;9.20;;;4.13;;
28760;SDS011;15917;50.014;8.352;2023-05-14T02:18:15;6.65;;;3.38;;
28760;SDS011;15917;50.014;8.352;2023-05-14T02:20:41;7.15;;;3.83;;
28760;SDS011;15917;50.014;8.352;2023-05-14T02:23:06;10.57;;;3.97;;
28760;SDS011;15917;50.014;8.352;2023-05-14T02:25:32;7.20;;;4.57;;
28760;SDS011;15917;50.014;8.352;2023-05-14T02:27:57;15.45;;;4.20;;
28760;SDS011;15917;50.014;8.352;2023-05-14T02:30:23;5.75;;;4.20;;
28760;SDS011;15917;50.014;8.352;2023-05-14T02:32:49;10.95;;;4.18;;
28760;SDS011;15917;50.014;8.352;2023-05-14T02:35:14;5.47;;;3.95;;
28760;SDS011;15917;50.014;8.352;2023-05-14T02:37:40;4.53;;;3.70;;
28760;SDS011;15917;50.014;8.352;2023-05-14T02:40:06;6.30;;;4.13;;
28760;SDS011;15917;50.014;8.352;2023-05-14T02:42:33;8.50;;;4.07;;
28760;SDS011;15917;50.014;8.352;2023-05-14T02:44:58;11.60;;;4.32;;
28760;SDS011;15917;50.014;8.352;2023-05-14T02:47:25;7.97;;;4.03;;
28760;SDS011;15917;50.014;8.352;2023-05-14T02:49:50;5.95;;;3.85;;
28760;SDS011;15917;50.014;8.352;2023-05-14T02:52:16;5.07;;;3.72;;
28760;SDS011;15917;50.014;8.352;2023-05-14T02:54:42;4.88;;;3.40;;
28760;SDS011;15917;50.014;8.352;2023-05-14T02:57:07;6.38;;;4.18;;
28760;SDS011;15917;50.014;8.352;2023-05-14T02:59:33;10.60;;;4.05;;
28760;SDS011;15917;50.014;8.352;2023-05-14T03:01:58;6.40;;;4.18;;
28760;SDS011;15917;50.014;8.352;2023-05-14T03:04:24;8.63;;;4.47;;
28760;SDS011;15917;50.014;8.352;2023-05-14T03:06:49;9.57;;;3.55;;
28760;SDS011;15917;50.014;8.352;2023-05-14T03:09:15;17.27;;;3.88;;
28760;SDS011;15917;50.014;8.352;2023-05-14T03:11:41;30.98;;;4.13;;
28760;SDS011;15917;50.014;8.352;2023-05-14T03:14:06;8.80;;;3.90;;
28760;SDS011;15917;50.014;8.352;2023-05-14T03:16:32;9.20;;;3.90;;
28760;SDS011;15917;50.014;8.352;2023-05-14T03:18:57;8.30;;;3.78;;
28760;SDS011;15917;50.014;8.352;2023-05-14T03:21:23;5.20;;;3.47;;
28760;SDS011;15917;50.014;8.352;2023-05-14T03:23:50;4.88;;;3.80;;
28760;SDS011;15917;50.014;8.352;2023-05-14T03:26:17;5.40;;;3.90;;
28760;SDS011;15917;50.014;8.352;2023-05-14T03:28:43;6.25;;;3.80;;
28760;SDS011;15917;50.014;8.352;2023-05-14T03:31:09;6.25;;;3.60;;
28760;SDS011;15917;50.014;8.352;2023-05-14T03:33:35;5.88;;;3.72;;
28760;SDS011;15917;50.014;8.352;2023-05-14T03:36:01;7.75;;;4.10;;
28760;SDS011;15917;50.014;8.352;2023-05-14T03:38:27;12.77;;;4.75;;
28760;SDS011;15917;50.014;8.352;2023-05-14T03:40:52;9.75;;;3.90;;
28760;SDS011;15917;50.014;8.352;2023-05-14T03:43:18;16.60;;;4.28;;
28760;SDS011;15917;50.014;8.352;2023-05-14T03:45:44;7.82;;;3.90;;
28760;SDS011;15917;50.014;8.352;2023-05-14T03:48:11;10.43;;;4.50;;
28760;SDS011;15917;50.014;8.352;2023-05-14T03:50:36;7.60;;;3.72;;
28760;SDS011;15917;50.014;8.352;2023-05-14T03:53:05;6.50;;;3.55;;
28760;SDS011;15917;50.014;8.352;2023-05-14T03:55:30;5.65;;;4.05;;
28760;SDS011;15917;50.014;8.352;2023-05-14T03:57:56;5.85;;;4.32;;
28760;SDS011;15917;50.014;8.352;2023-05-14T04:00:21;5.20;;;3.80;;
28760;SDS011;15917;50.014;8.352;2023-05-14T04:05:15;12.70;;;4.82;;
28760;SDS011;15917;50.014;8.352;2023-05-14T04:07:40;9.38;;;4.05;;
28760;SDS011;15917;50.014;8.352;2023-05-14T04:10:06;8.02;;;4.50;;
28760;SDS011;15917;50.014;8.352;2023-05-14T04:12:34;6.68;;;4.65;;
28760;SDS011;15917;50.014;8.352;2023-05-14T04:15:00;8.95;;;4.53;;
28760;SDS011;15917;50.014;8.352;2023-05-14T04:17:26;5.50;;;3.92;;
28760;SDS011;15917;50.014;8.352;2023-05-14T04:19:51;6.15;;;4.78;;
28760;SDS011;15917;50.014;8.352;2023-05-14T04:22:17;7.85;;;4.72;;
28760;SDS011;15917;50.014;8.352;2023-05-14T04:24:42;8.23;;;4.03;;
28760;SDS011;15917;50.014;8.352;2023-05-14T04:27:08;5.28;;;3.75;;
28760;SDS011;15917;50.014;8.352;2023-05-14T04:29:34;10.52;;;4.65;;
28760;SDS011;15917;50.014;8.352;2023-05-14T04:31:59;5.63;;;3.72;;
28760;SDS011;15917;50.014;8.352;2023-05-14T04:34:25;6.05;;;4.00;;
28760;SDS011;15917;50.014;8.352;2023-05-14T04:36:50;10.02;;;4.90;;
28760;SDS011;15917;50.014;8.352;2023-05-14T04:39:16;6.32;;;4.15;;
28760;SDS011;15917;50.014;8.352;2023-05-14T04:41:42;6.10;;;4.03;;
28760;SDS011;15917;50.014;8.352;2023-05-14T04:44:08;10.63;;;4.63;;
28760;SDS011;15917;50.014;8.352;2023-05-14T04:46:34;8.65;;;4.28;;
28760;SDS011;15917;50.014;8.352;2023-05-14T04:48:59;7.28;;;4.53;;
28760;SDS011;15917;50.014;8.352;2023-05-14T04:51:25;7.90;;;4.55;;
28760;SDS011;15917;50.014;8.352;2023-05-14T04:53:50;7.43;;;4.60;;
28760;SDS011;15917;50.014;8.352;2023-05-14T04:56:16;10.65;;;5.40;;
28760;SDS011;15917;50.014;8.352;2023-05-14T04:58:42;6.07;;;4.25;;
28760;SDS011;15917;50.014;8.352;2023-05-14T05:01:07;11.50;;;4.20;;
28760;SDS011;15917;50.014;8.352;2023-05-14T05:03:33;6.63;;;3.72;;
28760;SDS011;15917;50.014;8.352;2023-05-14T05:05:58;7.25;;;4.60;;
28760;SDS011;15917;50.014;8.352;2023-05-14T05:08:24;7.65;;;4.78;;
28760;SDS011;15917;50.014;8.352;2023-05-14T05:10:50;6.53;;;4.68;;
28760;SDS011;15917;50.014;8.352;2023-05-14T05:13:15;6.07;;;4.90;;
28760;SDS011;15917;50.014;8.352;2023-05-14T05:15:41;6.22;;;4.00;;
28760;SDS011;15917;50.014;8.352;2023-05-14T05:18:07;8.73;;;4.57;;
28760;SDS011;15917;50.014;8.352;2023-05-14T05:20:33;11.40;;;4.57;;
28760;SDS011;15917;50.014;8.352;2023-05-14T05:22:59;8.98;;;4.28;;
28760;SDS011;15917;50.014;8.352;2023-05-14T05:25:24;9.52;;;4.50;;
28760;SDS011;15917;50.014;8.352;2023-05-14T05:27:50;10.38;;;4.30;;
28760;SDS011;15917;50.014;8.352;2023-05-14T05:30:16;7.47;;;4.35;;
28760;SDS011;15917;50.014;8.352;2023-05-14T05:32:42;8.35;;;4.43;;
28760;SDS011;15917;50.014;8.352;2023-05-14T05:35:07;7.20;;;4.07;;
28760;SDS011;15917;50.014;8.352;2023-05-14T05:37:33;7.10;;;4.22;;
28760;SDS011;15917;50.014;8.352;2023-05-14T05:39:59;8.93;;;4.10;;
28760;SDS011;15917;50.014;8.352;2023-05-14T05:42:24;11.10;;;4.28;;
28760;SDS011;15917;50.014;8.352;2023-05-14T05:44:50;7.70;;;4.40;;
28760;SDS011;15917;50.014;8.352;2023-05-14T05:47:16;10.50;;;5.25;;
28760;SDS011;15917;50.014;8.352;2023-05-14T05:49:41;9.10;;;4.63;;
28760;SDS011;15917;50.014;8.352;2023-05-14T05:52:07;13.13;;;4.53;;
28760;SDS011;15917;50.014;8.352;2023-05-14T05:54:33;9.75;;;4.15;;
28760;SDS011;15917;50.014;8.352;2023-05-14T05:56:58;11.25;;;4.85;;
28760;SDS011;15917;50.014;8.352;2023-05-14T05:59:24;8.65;;;4.20;;
28760;SDS011;15917;50.014;8.352;2023-05-14T06:01:50;7.03;;;4.45;;
28760;SDS011;15917;50.014;8.352;2023-05-14T06:04:16;11.65;;;4.95;;
28760;SDS011;15917;50.014;8.352;2023-05-14T06:06:41;6.78;;;4.72;;
28760;SDS011;15917;50.014;8.352;2023-05-14T06:09:07;8.00;;;4.57;;
28760;SDS011;15917;50.014;8.352;2023-05-14T06:11:33;10.38;;;4.90;;
28760;SDS011;15917;50.014;8.352;2023-05-14T06:14:00;8.73;;;4.90;;
28760;SDS011;15917;50.014;8.352;2023-05-14T06:16:26;7.85;;;5.35;;
28760;SDS011;15917;50.014;8.352;2023-05-14T06:18:51;10.70;;;5.22;;
28760;SDS011;15917;50.014;8.352;2023-05-14T06:21:18;7.03;;;5.32;;
28760;SDS011;15917;50.014;8.352;2023-05-14T06:23:44;7.13;;;5.05;;
28760;SDS011;15917;50.014;8.352;2023-05-14T06:26:09;9.45;;;4.90;;
28760;SDS011;15917;50.014;8.352;2023-05-14T06:28:35;5.40;;;4.07;;
28760;SDS011;15917;50.014;8.352;2023-05-14T06:31:01;5.63;;;3.85;;
28760;SDS011;15917;50.014;8.352;2023-05-14T06:33:26;5.63;;;4.05;;
28760;SDS011;15917;50.014;8.352;2023-05-14T06:35:59;6.55;;;3.78;;
28760;SDS011;15917;50.014;8.352;2023-05-14T06:38:28;5.05;;;3.58;;
28760;SDS011;15917;50.014;8.352;2023-05-14T06:40:54;6.93;;;4.45;;
28760;SDS011;15917;50.014;8.352;2023-05-14T06:43:20;8.93;;;3.45;;
28760;SDS011;15917;50.014;8.352;2023-05-14T06:45:48;5.80;;;3.80;;
28760;SDS011;15917;50.014;8.352;2023-05-14T06:48:17;8.73;;;3.75;;
28760;SDS011;15917;50.014;8.352;2023-05-14T06:50:44;5.70;;;2.95;;
28760;SDS011;15917;50.014;8.352;2023-05-14T06:53:11;7.70;;;3.25;;
28760;SDS011;15917;50.014;8.352;2023-05-14T06:55:36;4.38;;;2.83;;
28760;SDS011;15917;50.014;8.352;2023-05-14T06:58:02;5.95;;;3.75;;
28760;SDS011;15917;50.014;8.352;2023-05-14T07:00:30;13.68;;;3.60;;
28760;SDS011;15917;50.014;8.352;2023-05-14T07:02:56;5.47;;;2.97;;
28760;SDS011;15917;50.014;8.352;2023-05-14T07:05:21;10.50;;;3.80;;
28760;SDS011;15917;50.014;8.352;2023-05-14T07:07:47;12.52;;;4.22;;
28760;SDS011;15917;50.014;8.352;2023-05-14T07:10:12;6.07;;;3.88;;
28760;SDS011;15917;50.014;8.352;2023-05-14T07:12:38;9.38;;;3.60;;
28760;SDS011;15917;50.014;8.352;2023-05-14T07:15:04;5.32;;;3.80;;
28760;SDS011;15917;50.014;8.352;2023-05-14T07:17:30;4.72;;;3.38;;
28760;SDS011;15917;50.014;8.352;2023-05-14T07:19:56;4.38;;;2.90;;
28760;SDS011;15917;50.014;8.352;2023-05-14T07:22:21;4.95;;;3.15;;
28760;SDS011;15917;50.014;8.352;2023-05-14T07:24:47;8.95;;;3.30;;
28760;SDS011;15917;50.014;8.352;2023-05-14T07:27:13;6.28;;;3.15;;
28760;SDS011;15917;50.014;8.352;2023-05-14T07:29:39;5.03;;;2.83;;
28760;SDS011;15917;50.014;8.352;2023-05-14T07:32:04;8.48;;;3.28;;
28760;SDS011;15917;50.014;8.352;2023-05-14T07:34:30;5.28;;;2.97;;
28760;SDS011;15917;50.014;8.352;2023-05-14T07:36:55;5.30;;;3.20;;
28760;SDS011;15917;50.014;8.352;2023-05-14T07:39:21;4.80;;;2.58;;
28760;SDS011;15917;50.014;8.352;2023-05-14T07:41:46;6.82;;;3.65;;
28760;SDS011;15917;50.014;8.352;2023-05-14T07:44:14;5.13;;;2.88;;
28760;SDS011;15917;50.014;8.352;2023-05-14T07:46:39;6.35;;;3.47;;
28760;SDS011;15917;50.014;8.352;2023-05-14T07:49:05;5.40;;;3.47;;
28760;SDS011;15917;50.014;8.352;2023-05-14T07:51:31;7.63;;;3.55;;
28760;SDS011;15917;50.014;8.352;2023-05-14T07:53:57;6.97;;;3.08;;
28760;SDS011;15917;50.014;8.352;2023-05-14T07:56:23;5.38;;;3.55;;
28760;SDS011;15917;50.014;8.352;2023-05-14T07:58:49;5.00;;;3.88;;
28760;SDS011;15917;50.014;8.352;2023-05-14T08:01:15;5.28;;;3.40;;
28760;SDS011;15917;50.014;8.352;2023-05-14T08:03:41;4.20;;;3.22;;
28760;SDS011;15917;50.014;8.352;2023-05-14T08:06:07;4.18;;;3.35;;
28760;SDS011;15917;50.014;8.352;2023-05-14T08:08:32;4.13;;;3.38;;
28760;SDS011;15917;50.014;8.352;2023-05-14T08:10:58;4.40;;;3.20;;
28760;SDS011;15917;50.014;8.352;2023-05-14T08:13:23;6.07;;;3.55;;
28760;SDS011;15917;50.014;8.352;2023-05-14T08:15:49;4.70;;;3.33;;
28760;SDS011;15917;50.014;8.352;2023-05-14T08:18:15;8.98;;;3.38;;
28760;SDS011;15917;50.014;8.352;2023-05-14T08:20:41;3.88;;;3.17;;
28760;SDS011;15917;50.014;8.352;2023-05-14T08:23:06;9.27;;;3.72;;
28760;SDS011;15917;50.014;8.352;2023-05-14T08:25:33;7.35;;;3.97;;
28760;SDS011;15917;50.014;8.352;2023-05-14T08:27:59;13.50;;;4.03;;
28760;SDS011;15917;50.014;8.352;2023-05-14T08:30:25;7.95;;;3.65;;
28760;SDS011;15917;50.014;8.352;2023-05-14T08:32:51;5.20;;;3.20;;
28760;SDS011;15917;50.014;8.352;2023-05-14T08:35:17;5.97;;;3.47;;
28760;SDS011;15917;50.014;8.352;2023-05-14T08:37:43;14.18;;;3.55;;
28760;SDS011;15917;50.014;8.352;2023-05-14T08:40:09;12.68;;;3.13;;
28760;SDS011;15917;50.014;8.352;2023-05-14T08:42:39;5.90;;;3.80;;
28760;SDS011;15917;50.014;8.352;2023-05-14T08:45:06;8.05;;;3.22;;
28760;SDS011;15917;50.014;8.352;2023-05-14T08:47:49;8.15;;;3.05;;
28760;SDS011;15917;50.014;8.352;2023-05-14T08:50:15;5.18;;;2.85;;
28760;SDS011;15917;50.014;8.352;2023-05-14T08:52:41;4.93;;;3.20;;
28760;SDS011;15917;50.014;8.352;2023-05-14T08:55:08;5.95;;;3.38;;
28760;SDS011;15917;50.014;8.352;2023-05-14T08:57:34;9.10;;;3.15;;
28760;SDS011;15917;50.014;8.352;2023-05-14T09:00:00;9.52;;;3.22;;
28760;SDS011;15917;50.014;8.352;2023-05-14T09:02:32;3.83;;;2.40;;
28760;SDS011;15917;50.014;8.352;2023-05-14T09:04:59;8.07;;;2.50;;
28760;SDS011;15917;50.014;8.352;2023-05-14T09:07:25;6.10;;;3.67;;
28760;SDS011;15917;50.014;8.352;2023-05-14T09:09:52;5.90;;;2.75;;
28760;SDS011;15917;50.014;8.352;2023-05-14T09:12:19;5.53;;;2.40;;
28760;SDS011;15917;50.014;8.352;2023-05-14T09:14:46;6.93;;;3.20;;
28760;SDS011;15917;50.014;8.352;2023-05-14T09:17:14;4.50;;;2.75;;
28760;SDS011;15917;50.014;8.352;2023-05-14T09:19:41;3.33;;;2.40;;
28760;SDS011;15917;50.014;8.352;2023-05-14T09:22:11;2.45;;;2.05;;
28760;SDS011;15917;50.014;8.352;2023-05-14T09:24:39;4.85;;;2.15;;
28760;SDS011;15917;50.014;8.352;2023-05-14T09:27:05;3.72;;;2.63;;
28760;SDS011;15917;50.014;8.352;2023-05-14T09:29:31;3.50;;;1.90;;
28760;SDS011;15917;50.014;8.352;2023-05-14T09:31:58;2.85;;;1.77;;
28760;SDS011;15917;50.014;8.352;2023-05-14T09:34:29;3.10;;;2.38;;
28760;SDS011;15917;50.014;8.352;2023-05-14T09:36:59;4.90;;;2.72;;
28760;SDS011;15917;50.014;8.352;2023-05-14T09:39:27;4.95;;;2.42;;
28760;SDS011;15917;50.014;8.352;2023-05-14T09:41:53;4.57;;;2.50;;
28760;SDS011;15917;50.014;8.352;2023-05-14T09:44:20;5.32;;;2.63;;
28760;SDS011;15917;50.014;8.352;2023-05-14T09:46:46;2.95;;;2.40;;
28760;SDS011;15917;50.014;8.352;2023-05-14T09:49:13;6.32;;;2.40;;
28760;SDS011;15917;50.014;8.352;2023-05-14T09:51:39;4.47;;;2.35;;
28760;SDS011;15917;50.014;8.352;2023-05-14T09:54:04;3.88;;;2.75;;
28760;SDS011;15917;50.014;8.352;2023-05-14T09:56:34;7.22;;;2.42;;
28760;SDS011;15917;50.014;8.352;2023-05-14T09:59:01;4.20;;;2.40;;
28760;SDS011;15917;50.014;8.352;2023-05-14T10:01:27;4.13;;;2.80;;
28760;SDS011;15917;50.014;8.352;2023-05-14T10:03:54;5.88;;;2.72;;
28760;SDS011;15917;50.014;8.352;2023-05-14T10:06:24;3.33;;;2.17;;
28760;SDS011;15917;50.014;8.352;2023-05-14T10:08:55;6.93;;;3.03;;
28760;SDS011;15917;50.014;8.352;2023-05-14T10:11:24;11.80;;;3.05;;
28760;SDS011;15917;50.014;8.352;2023-05-14T10:16:57;5.63;;;2.80;;
28760;SDS011;15917;50.014;8.352;2023-05-14T10:19:24;3.08;;;2.60;;
28760;SDS011;15917;50.014;8.352;2023-05-14T10:21:52;5.70;;;2.57;;
28760;SDS011;15917;50.014;8.352;2023-05-14T10:24:21;6.00;;;2.38;;
28760;SDS011;15917;50.014;8.352;2023-05-14T10:26:48;5.70;;;2.90;;
28760;SDS011;15917;50.014;8.352;2023-05-14T10:29:14;3.53;;;2.38;;
28760;SDS011;15917;50.014;8.352;2023-05-14T10:31:49;6.18;;;2.78;;
28760;SDS011;15917;50.014;8.352;2023-05-14T10:37:19;3.75;;;2.55;;
28760;SDS011;15917;50.014;8.352;2023-05-14T10:42:21;3.40;;;2.45;;
28760;SDS011;15917;50.014;8.352;2023-05-14T10:44:57;2.97;;;2.10;;
28760;SDS011;15917;50.014;8.352;2023-05-14T10:47:26;5.32;;;2.60;;
28760;SDS011;15917;50.014;8.352;2023-05-14T10:49:54;6.78;;;4.03;;
28760;SDS011;15917;50.014;8.352;2023-05-14T10:52:22;5.07;;;2.90;;
28760;SDS011;15917;50.014;8.352;2023-05-14T10:54:48;4.97;;;3.17;;
28760;SDS011;15917;50.014;8.352;2023-05-14T10:57:16;4.80;;;2.70;;
28760;SDS011;15917;50.014;8.352;2023-05-14T10:59:42;11.50;;;3.42;;
28760;SDS011;15917;50.014;8.352;2023-05-14T11:02:18;4.10;;;2.72;;
28760;SDS011;15917;50.014;8.352;2023-05-14T11:04:56;6.68;;;2.63;;
28760;SDS011;15917;50.014;8.352;2023-05-14T11:07:26;4.40;;;2.17;;
28760;SDS011;15917;50.014;8.352;2023-05-14T11:10:07;3.35;;;2.30;;
28760;SDS011;15917;50.014;8.352;2023-05-14T11:12:35;5.53;;;2.25;;
28760;SDS011;15917;50.014;8.352;2023-05-14T11:17:32;3.63;;;2.22;;
28760;SDS011;15917;50.014;8.352;2023-05-14T11:19:59;6.25;;;2.65;;
28760;SDS011;15917;50.014;8.352;2023-05-14T11:22:25;2.85;;;2.00;;
28760;SDS011;15917;50.014;8.352;2023-05-14T11:24:51;2.95;;;1.95;;
28760;SDS011;15917;50.014;8.352;2023-05-14T11:27:17;3.72;;;2.10;;
28760;SDS011;15917;50.014;8.352;2023-05-14T11:29:45;8.02;;;2.20;;
28760;SDS011;15917;50.014;8.352;2023-05-14T11:32:11;4.30;;;2.03;;
28760;SDS011;15917;50.014;8.352;2023-05-14T11:34:38;9.60;;;2.75;;
28760;SDS011;15917;50.014;8.352;2023-05-14T11:37:07;5.05;;;2.05;;
28760;SDS011;15917;50.014;8.352;2023-05-14T11:39:34;4.68;;;1.95;;
28760;SDS011;15917;50.014;8.352;2023-05-14T11:42:02;2.83;;;1.85;;
28760;SDS011;15917;50.014;8.352;2023-05-14T11:46:56;3.42;;;2.53;;
28760;SDS011;15917;50.014;8.352;2023-05-14T11:49:22;3.47;;;1.83;;
28760;SDS011;15917;50.014;8.352;2023-05-14T11:51:49;3.03;;;1.60;;
28760;SDS011;15917;50.014;8.352;2023-05-14T11:54:20;2.20;;;1.77;;
28760;SDS011;15917;50.014;8.352;2023-05-14T11:56:48;10.40;;;2.78;;
28760;SDS011;15917;50.014;8.352;2023-05-14T11:59:15;2.65;;;1.80;;
28760;SDS011;15917;50.014;8.352;2023-05-14T12:04:10;2.20;;;2.00;;
28760;SDS011;15917;50.014;8.352;2023-05-14T12:06:37;5.72;;;2.10;;
28760;SDS011;15917;50.014;8.352;2023-05-14T12:09:03;4.45;;;1.85;;
28760;SDS011;15917;50.014;8.352;2023-05-14T12:11:30;2.17;;;1.98;;
28760;SDS011;15917;50.014;8.352;2023-05-14T12:13:56;2.17;;;1.52;;
28760;SDS011;15917;50.014;8.352;2023-05-14T12:16:31;2.47;;;1.60;;
28760;SDS011;15917;50.014;8.352;2023-05-14T12:19:00;4.22;;;2.15;;
28760;SDS011;15917;50.014;8.352;2023-05-14T12:21:26;3.58;;;2.00;;
28760;SDS011;15917;50.014;8.352;2023-05-14T12:23:57;3.72;;;2.20;;
28760;SDS011;15917;50.014;8.352;2023-05-14T12:26:24;3.95;;;2.00;;
28760;SDS011;15917;50.014;8.352;2023-05-14T12:28:55;3.10;;;1.90;;
28760;SDS011;15917;50.014;8.352;2023-05-14T12:31:27;6.80;;;1.88;;
28760;SDS011;15917;50.014;8.352;2023-05-14T12:33:56;7.15;;;1.75;;
28760;SDS011;15917;50.014;8.352;2023-05-14T12:36:22;3.63;;;2.33;;
28760;SDS011;15917;50.014;8.352;2023-05-14T12:38:48;4.03;;;2.15;;
28760;SDS011;15917;50.014;8.352;2023-05-14T12:41:15;2.22;;;1.75;;
28760;SDS011;15917;50.014;8.352;2023-05-14T12:43:41;3.30;;;2.10;;
28760;SDS011;15917;50.014;8.352;2023-05-14T12:46:08;2.63;;;2.10;;
28760;SDS011;15917;50.014;8.352;2023-05-14T12:48:33;11.23;;;2.10;;
28760;SDS011;15917;50.014;8.352;2023-05-14T12:50:59;1.58;;;1.48;;
28760;SDS011;15917;50.014;8.352;2023-05-14T12:53:25;6.07;;;2.25;;
28760;SDS011;15917;50.014;8.352;2023-05-14T12:55:50;2.30;;;1.73;;
28760;SDS011;15917;50.014;8.352;2023-05-14T12:58:16;2.75;;;1.75;;
28760;SDS011;15917;50.014;8.352;2023-05-14T13:00:42;3.25;;;1.83;;
28760;SDS011;15917;50.014;8.352;2023-05-14T13:03:07;4.07;;;1.70;;
28760;SDS011;15917;50.014;8.352;2023-05-14T13:05:33;2.78;;;1.70;;
28760;SDS011;15917;50.014;8.352;2023-05-14T13:07:59;2.88;;;1.77;;
28760;SDS011;15917;50.014;8.352;2023-05-14T13:10:27;1.40;;;1.30;;
28760;SDS011;15917;50.014;8.352;2023-05-14T13:12:53;4.75;;;1.40;;
28760;SDS011;15917;50.014;8.352;2023-05-14T13:15:20;2.40;;;1.30;;
28760;SDS011;15917;50.014;8.352;2023-05-14T13:17:46;3.40;;;1.80;;
28760;SDS011;15917;50.014;8.352;2023-05-14T13:20:12;2.60;;;1.50;;
28760;SDS011;15917;50.014;8.352;2023-05-14T13:22:38;3.92;;;1.70;;
28760;SDS011;15917;50.014;8.352;2023-05-14T13:25:04;3.80;;;1.60;;
28760;SDS011;15917;50.014;8.352;2023-05-14T13:27:31;2.40;;;1.55;;
28760;SDS011;15917;50.014;8.352;2023-05-14T13:29:57;2.50;;;1.42;;
28760;SDS011;15917;50.014;8.352;2023-05-14T13:32:24;2.65;;;1.45;;
28760;SDS011;15917;50.014;8.352;2023-05-14T13:34:49;2.47;;;1.42;;
28760;SDS011;15917;50.014;8.352;2023-05-14T13:37:15;1.52;;;1.42;;
28760;SDS011;15917;50.014;8.352;2023-05-14T13:42:11;1.67;;;1.50;;
28760;SDS011;15917;50.014;8.352;2023-05-14T13:44:37;1.83;;;1.40;;
28760;SDS011;15917;50.014;8.352;2023-05-14T13:47:03;2.17;;;1.45;;
28760;SDS011;15917;50.014;8.352;2023-05-14T13:49:28;1.52;;;1.30;;
28760;SDS011;15917;50.014;8.352;2023-05-14T13:51:54;4.28;;;1.50;;
28760;SDS011;15917;50.014;8.352;2023-05-14T13:54:20;2.35;;;1.50;;
28760;SDS011;15917;50.014;8.352;2023-05-14T13:56:45;4.30;;;1.70;;
28760;SDS011;15917;50.014;8.352;2023-05-14T13:59:11;3.03;;;1.73;;
28760;SDS011;15917;50.014;8.352;2023-05-14T14:01:37;4.78;;;1.60;;
28760;SDS011;15917;50.014;8.352;2023-05-14T14:04:02;4.38;;;1.90;;
28760;SDS011;15917;50.014;8.352;2023-05-14T14:06:29;1.98;;;1.70;;
28760;SDS011;15917;50.014;8.352;2023-05-14T14:11:21;2.92;;;1.67;;
28760;SDS011;15917;50.014;8.352;2023-05-14T14:13:47;7.88;;;1.83;;
28760;SDS011;15917;50.014;8.352;2023-05-14T14:16:12;3.25;;;1.77;;
28760;SDS011;15917;50.014;8.352;2023-05-14T14:18:38;2.70;;;1.73;;
28760;SDS011;15917;50.014;8.352;2023-05-14T14:21:04;1.65;;;1.52;;
28760;SDS011;15917;50.014;8.352;2023-05-14T14:23:30;5.78;;;1.95;;
28760;SDS011;15917;50.014;8.352;2023-05-14T14:25:56;1.70;;;1.50;;
28760;SDS011;15917;50.014;8.352;2023-05-14T14:28:22;1.83;;;1.55;;
28760;SDS011;15917;50.014;8.352;2023-05-14T14:30:47;1.92;;;1.15;;
28760;SDS011;15917;50.014;8.352;2023-05-14T14:33:14;2.35;;;1.65;;
28760;SDS011;15917;50.014;8.352;2023-05-14T14:35:40;2.92;;;2.13;;
28760;SDS011;15917;50.014;8.352;2023-05-14T14:38:05;2.10;;;1.30;;
28760;SDS011;15917;50.014;8.352;2023-05-14T14:40:31;1.13;;;1.02;;
28760;SDS011;15917;50.014;8.352;2023-05-14T14:42:58;1.65;;;1.35;;
28760;SDS011;15917;50.014;8.352;2023-05-14T14:45:23;2.33;;;1.45;;
28760;SDS011;15917;50.014;8.352;2023-05-14T14:47:49;3.00;;;1.80;;
28760;SDS011;15917;50.014;8.352;2023-05-14T14:50:14;2.88;;;1.40;;
28760;SDS011;15917;50.014;8.352;2023-05-14T14:52:40;1.90;;;1.58;;
28760;SDS011;15917;50.014;8.352;2023-05-14T14:55:11;2.53;;;1.52;;
28760;SDS011;15917;50.014;8.352;2023-05-14T14:57:37;1.90;;;1.40;;
28760;SDS011;15917;50.014;8.352;2023-05-14T15:00:03;2.65;;;1.40;;
28760;SDS011;15917;50.014;8.352;2023-05-14T15:02:29;2.17;;;1.30;;
28760;SDS011;15917;50.014;8.352;2023-05-14T15:04:55;6.13;;;1.55;;
28760;SDS011;15917;50.014;8.352;2023-05-14T15:07:21;2.15;;;1.45;;